Terminal Aerodrome Forecast
Issued by NWS

Home | Current Version | Previous Version | Text Only | Print | Product List | Glossary On
Versions: 1 2 3 4 5 6 7 8 9 10 11 12 13 14 15 16 17
000
FTUS43 KABR 141100
TAFATY
TAF
KATY 141123Z 1412/1512 33014G20KT P6SM FEW035 FEW060
     FM141400 34017G25KT P6SM SCT035
     FM150100 34006KT P6SM SKC=

USA.gov is the U.S. government's official web portal to all federal, state and local government web resources and services.